Flight Track Log - Related Links

Times and Time Zones

All times are in EDT time to prevent confusion due to time zone crossing. See the GJS3618 flight status page for this flight to view local times or setup timezone preferences in your user account.

Time Position Orientation Groundspeed Altitude Reporting Facility
EDT Latitude Longitude Course Direction KTS MPH feet Rate Location/Type
Sun 12:11:48 PM 39.7833 -104.6000 108° East 210 242 8,000  Level Denver TRACON
Sun 12:12:05 PM 39.7742 -104.5922 147° Southeast 218 251 8,500 1,519 Climbing Denver Center
Sun 12:13:07 PM 39.7636 -104.4967 98° East 261 300 10,000 1,306 Climbing Denver Center
Sun 12:14:00 PM 39.5971 -104.2087 108° East  Level Estimated
Sun 12:14:09 PM 39.7686 -104.3800 87° East 320 368 11,200  Level Denver Center
Sun 12:15:00 PM 39.5307 -104.0932 113° Southeast  Level Estimated
Sun 12:15:11 PM 39.7361 -104.2592 109° East 361 415 12,900  Level Denver Center
Sun 12:16:00 PM 39.4642 -103.9779 110° East  Level Estimated
Sun 12:16:13 PM 39.6936 -104.1228 112° Southeast 382 440 15,000  Level Denver Center
Sun 12:17:00 PM 39.3992 -103.8656 108° East  Level Estimated
Sun 12:17:15 PM 39.6508 -103.9908 113° Southeast 397 457 17,200  Level Denver Center
Sun 12:18:17 PM 39.6075 -103.8481 111° Southeast 396 456 18,900 1,452 Climbing Denver Center
Sun 12:19:19 PM 39.5711 -103.7222 111° Southeast 403 464 20,200 1,500 Climbing Denver Center
Sun 12:20:21 PM 39.5283 -103.5542 108° East 417 480 22,000 1,597 Climbing Denver Center
Sun 12:21:23 PM 39.4894 -103.4053 109° East 431 496 23,500 1,403 Climbing Denver Center
Sun 12:22:25 PM 39.4497 -103.2550 109° East 437 503 24,900 1,258 Climbing Denver Center
Sun 12:23:27 PM 39.4083 -103.1022 109° East 445 512 26,100 1,161 Climbing Denver Center
Sun 12:24:29 PM 39.3675 -102.9486 109° East 448 516 27,300 1,065 Climbing Denver Center
Sun 12:25:31 PM 39.3253 -102.7908 109° East 460 529 28,300 968 Climbing Denver Center
Sun 12:26:33 PM 39.2814 -102.6275 109° East 469 540 29,300 1,016 Climbing Denver Center
Sun 12:27:35 PM 39.2308 -102.4483 110° East 476 548 30,400 871 Climbing Denver Center
Sun 12:28:37 PM 39.1878 -102.2908 109° East 486 559 31,100 871 Climbing Denver Center
Sun 12:29:39 PM 39.1369 -102.1033 109° East 495 570 32,200 1,016 Climbing Denver Center
Sun 12:30:41 PM 39.0650 -101.9650 124° Southeast 488 562 33,200 1,016 Climbing Denver Center
Sun 12:31:43 PM 38.9511 -101.8383 139° Southeast 483 556 34,300 919 Climbing Denver Center
Sun 12:32:45 PM 38.8531 -101.7308 139° Southeast 484 557 35,100 823 Climbing Denver Center
Sun 12:33:47 PM 38.7378 -101.6050 140° Southeast 488 562 36,000 823 Climbing Denver Center
Sun 12:34:49 PM 38.6386 -101.4967 140° Southeast 490 564 36,800 823 Climbing Denver Center
Sun 12:35:51 PM 38.5233 -101.3719 140° Southeast 486 559 37,700 823 Climbing Denver Center
Sun 12:36:53 PM 38.4261 -101.2678 140° Southeast 479 551 38,500 629 Climbing Denver Center
Sun 12:37:55 PM 38.3322 -101.1578 137° Southeast 478 550 39,000 242 Climbing Denver Center
Sun 12:38:57 PM 38.2278 -101.0247 135° Southeast 476 548 39,000  Level Denver Center
Sun 12:39:59 PM 38.1375 -100.9122 136° Southeast 473 544 39,000  Level Denver Center
Sun 12:40:41 PM 38.0631 -100.8186 135° Southeast 471 542 39,000  Level Kansas Center
Sun 12:41:43 PM 37.9744 -100.7075 135° Southeast 466 536 39,000  Level Kansas Center
Sun 12:42:45 PM 37.8858 -100.5975 136° Southeast 464 534 39,000  Level Kansas Center
Sun 12:43:46 PM 37.7822 -100.4703 136° Southeast 461 531 39,000  Level Kansas Center
Sun 12:44:48 PM 37.6942 -100.3611 136° Southeast 460 529 39,000  Level Kansas Center
Sun 12:45:50 PM 37.5919 -100.2353 136° Southeast 458 527 39,000  Level Kansas Center
Sun 12:46:52 PM 37.5039 -100.1289 136° Southeast 457 526 39,000  Level Kansas Center
Sun 12:47:54 PM 37.4017 -100.0036 136° Southeast 458 527 39,000  Level Kansas Center
Sun 12:48:56 PM 37.3133 -99.8961 136° Southeast 460 529 39,000  Level Kansas Center
Sun 12:49:58 PM 37.2244 -99.7897 136° Southeast 461 531 39,000  Level Kansas Center
Sun 12:51:00 PM 37.1208 -99.6647 136° Southeast 461 531 39,000  Level Kansas Center
Sun 12:52:02 PM 37.0306 -99.5586 137° Southeast 463 533 39,000  Level Kansas Center
Sun 12:53:04 PM 36.9264 -99.4339 136° Southeast 464 534 39,000  Level Kansas Center
Sun 12:54:06 PM 36.8472 -99.3394 136° Southeast 463 533 39,000  Level Kansas Center
Sun 12:55:08 PM 36.7325 -99.2028 136° Southeast 465 535 39,000 -97 Level Kansas Center
Sun 12:56:10 PM 36.6433 -99.0961 136° Southeast 465 535 38,800 -1,161 Descending Kansas Center
Sun 12:57:12 PM 36.5472 -98.9847 137° Southeast 465 535 36,600 -2,274 Descending Kansas Center
Sun 12:58:14 PM 36.4469 -98.8669 137° Southeast 474 545 34,100 -2,419 Descending Kansas Center
Sun 12:59:16 PM 36.3528 -98.7567 137° Southeast 471 542 31,600 -2,419 Descending Kansas Center
Sun 01:00:18 PM 36.2606 -98.6494 137° Southeast 460 529 29,100 -2,661 Descending Kansas Center
Sun 01:01:20 PM 36.1531 -98.5247 137° Southeast 446 513 26,100 -2,661 Descending Kansas Center
Sun 01:02:22 PM 36.0664 -98.4242 137° Southeast 433 498 23,600 -2,516 Descending Kansas Center
Sun 01:03:24 PM 35.9831 -98.3275 137° Southeast 418 481 20,900 -2,758 Descending Kansas Center
Sun 01:04:26 PM 35.8997 -98.2331 137° Southeast 410 472 17,900 -3,000 Descending Kansas Center
Sun 01:04:44 PM 35.8686 -98.1972 137° Southeast 406 467 16,900 -2,694 Descending Fort Center
Sun 01:05:15 PM 35.8336 -98.1533 135° Southeast 411 473 15,700 -2,951 Descending Fort Center
Sun 01:05:45 PM 35.7858 -98.1019 139° Southeast 402 463 13,900 -3,000 Descending Fort Center
Sun 01:06:15 PM 35.7528 -98.0606 135° Southeast 406 467 12,700 -2,509 Descending Fort Center
Sun 01:06:40 PM 35.7175 -98.0169 135° Southeast 387 445 11,600 -1,700 Descending Fort Center
Sun 01:07:15 PM 35.6739 -97.9808 146° Southeast 395 455 11,000 -1,100 Descending Fort Center
Sun 01:07:40 PM 35.6364 -97.9500 146° Southeast 327 376 10,500 -1,200 Descending Fort Center
Sun 01:08:15 PM 35.6011 -97.9217 147° Southeast 355 409 9,800 -1,770 Descending Fort Center
Sun 01:08:41 PM 35.5597 -97.8881 147° Southeast 298 343 8,700 -1,700 Descending Fort Center
Sun 01:09:15 PM 35.5283 -97.8625 146° Southeast 325 374 8,100 -1,500 Descending Fort Center
Sun 01:09:41 PM 35.4911 -97.8342 148° Southeast 294 338 7,200 -1,500 Descending Fort Center
Sun 01:10:15 PM 35.4597 -97.8111 149° Southeast 308 354 6,600 -1,469 Descending Fort Center
Sun 01:10:30 PM 35.4389 -97.7931 145° Southeast 281 323 6,000 -700 Descending Fort Center
Sun 01:11:15 PM 35.3994 -97.7625 148° Southeast 285 328 5,900 -400 Descending Fort Center
Sun 01:11:30 PM 35.3828 -97.7547 159° South 232 267 5,600 -1,000 Descending Fort Center
Sun 01:12:15 PM 35.3453 -97.7214 144° Southeast 259 298 4,900 -1,082 Descending Fort Center
Sun 01:12:31 PM 35.3225 -97.7164 170° South 217 250 4,500 -1,000 Descending Fort Center
Sun 01:13:15 PM 35.2869 -97.7008 160° South 230 265 3,900 -896 Descending Fort Center
Sun 01:13:38 PM 35.2703 -97.6831 139° Southeast 196 226 3,500 -900 Descending Fort Center
Sun 01:14:15 PM 35.2767 -97.6525 76° East 162 186 3,000 -700 Descending Fort Center
Sun 01:14:38 PM 35.3017 -97.6400 22° Northeast 169 194 2,800 -522 Descending Fort Center

Login

Don't have an account? Register now (free) for customized features, flight alerts, and more!